createdAt,value
2022-12-03T00:00:57.693Z,93726.25
2022-12-03T00:01:59.182Z,93730.09
2022-12-03T00:03:01.179Z,93717.09
2022-12-03T00:04:03.077Z,93726.41
2022-12-03T00:05:05.328Z,93725.03
2022-12-03T00:06:07.200Z,93726.53
2022-12-03T00:07:08.700Z,93731.84
2022-12-03T00:08:10.294Z,93728.44
2022-12-03T00:09:13.203Z,93732.94
2022-12-03T00:10:14.718Z,93727.06
2022-12-03T00:11:16.230Z,93729.81
2022-12-03T00:12:17.739Z,93727.63
2022-12-03T00:13:19.288Z,93727.22
2022-12-03T00:14:20.910Z,93736.09
2022-12-03T00:15:22.484Z,93731.19
2022-12-03T00:16:24.018Z,93727.91
2022-12-03T00:17:25.592Z,93731.34
2022-12-03T00:18:27.074Z,93725.84
2022-12-03T00:19:28.630Z,93730.88
2022-12-03T00:20:30.145Z,93736.63
2022-12-03T00:21:31.619Z,93724.59
2022-12-03T00:22:33.201Z,93726.50
2022-12-03T00:23:38.610Z,93723.81
2022-12-03T00:24:44.715Z,93722.44
2022-12-03T00:25:46.237Z,93721.31
2022-12-03T00:26:47.776Z,93728.00
2022-12-03T00:27:49.340Z,93717.06
2022-12-03T00:28:50.904Z,93722.84
2022-12-03T00:29:52.439Z,93724.88
2022-12-03T00:30:54.050Z,93725.81
2022-12-03T00:31:55.668Z,93725.97
2022-12-03T00:32:57.187Z,93724.03
2022-12-03T00:33:58.704Z,93722.56
2022-12-03T00:35:00.265Z,93723.75
2022-12-03T00:36:01.860Z,93725.03
2022-12-03T00:37:03.441Z,93720.59
2022-12-03T00:38:04.958Z,93724.84
2022-12-03T00:39:06.454Z,93721.31
2022-12-03T00:40:11.367Z,93725.69
2022-12-03T00:41:13.008Z,93731.03
2022-12-03T00:42:14.594Z,93729.25
2022-12-03T00:43:16.153Z,93723.81
2022-12-03T00:44:17.673Z,93730.91
2022-12-03T00:45:19.205Z,93725.97
2022-12-03T00:46:21.800Z,93729.53
2022-12-03T00:47:23.541Z,93725.16
2022-12-03T00:48:25.069Z,93731.19
2022-12-03T00:49:26.567Z,93722.28
2022-12-03T00:50:28.106Z,93720.94
2022-12-03T00:51:29.655Z,93729.41
2022-12-03T00:52:31.202Z,93729.66
2022-12-03T00:53:32.677Z,93724.50
2022-12-03T00:55:12.529Z,93723.81
2022-12-03T00:56:15.427Z,93729.97
2022-12-03T00:57:16.952Z,93725.31
2022-12-03T00:58:18.525Z,93730.25
2022-12-03T00:59:20.713Z,93724.34
2022-12-03T01:00:22.563Z,93724.91
2022-12-03T01:01:24.214Z,93722.03
2022-12-03T01:02:25.808Z,93722.84
2022-12-03T01:03:27.530Z,93725.16
2022-12-03T01:04:29.555Z,93725.16
2022-12-03T01:05:31.092Z,93729.28
2022-12-03T01:06:32.594Z,93732.41
2022-12-03T01:07:34.190Z,93722.56
2022-12-03T01:08:35.748Z,93734.19
2022-12-03T01:09:37.276Z,93728.59
2022-12-03T01:10:38.795Z,93720.66
2022-12-03T01:11:41.648Z,93734.47
2022-12-03T01:12:43.199Z,93726.81
2022-12-03T01:13:44.728Z,93714.06
2022-12-03T01:14:46.681Z,93723.94
2022-12-03T01:15:48.271Z,93726.41
2022-12-03T01:16:49.824Z,93720.94
2022-12-03T01:17:51.337Z,93721.47
2022-12-03T01:18:52.898Z,93721.88
2022-12-03T01:19:54.464Z,93716.69
2022-12-03T01:20:55.975Z,93721.63
2022-12-03T01:21:57.505Z,93712.97
2022-12-03T01:22:59.138Z,93718.47
2022-12-03T01:24:00.864Z,93717.78
2022-12-03T01:25:03.231Z,93717.78
2022-12-03T01:26:05.018Z,93717.09
2022-12-03T01:27:07.875Z,93717.66
2022-12-03T01:28:09.453Z,93722.84
2022-12-03T01:29:11.036Z,93714.91
2022-12-03T01:30:13.533Z,93719.69
2022-12-03T01:31:15.167Z,93723.38
2022-12-03T01:32:16.777Z,93714.19
2022-12-03T01:33:18.283Z,93715.97
2022-12-03T01:34:19.902Z,93718.06
2022-12-03T01:35:21.456Z,93717.91
2022-12-03T01:36:23.073Z,93719.69
2022-12-03T01:37:26.403Z,93713.94
2022-12-03T01:38:27.886Z,93716.81
2022-12-03T01:39:29.592Z,93722.56
2022-12-03T01:40:31.164Z,93714.75
2022-12-03T01:41:33.922Z,93721.91
2022-12-03T01:42:40.812Z,93723.22
2022-12-03T01:43:42.923Z,93717.34
2022-12-03T01:44:45.434Z,93721.06
2022-12-03T01:45:47.039Z,93728.72
2022-12-03T01:46:49.744Z,93727.19
2022-12-03T01:47:51.499Z,93729.25
2022-12-03T01:48:55.816Z,93726.53
2022-12-03T01:50:01.681Z,93722.44
2022-12-03T01:51:03.633Z,93734.16
2022-12-03T01:52:05.809Z,93724.75
2022-12-03T01:53:12.335Z,93720.25
2022-12-03T01:54:17.375Z,93723.53
2022-12-03T01:55:22.234Z,93726.25
2022-12-03T01:56:24.325Z,93726.25
2022-12-03T01:57:27.982Z,93729.00
2022-12-03T01:58:31.206Z,93725.03
2022-12-03T01:59:35.567Z,93725.97
2022-12-03T02:00:37.110Z,93723.66
2022-12-03T02:01:38.639Z,93725.16
2022-12-03T02:02:40.428Z,93731.03
2022-12-03T02:03:42.378Z,93729.00
2022-12-03T02:04:44.250Z,93725.72
2022-12-03T02:05:45.784Z,93729.97
2022-12-03T02:06:47.322Z,93730.91
2022-12-03T02:07:49.420Z,93728.19
2022-12-03T02:08:51.029Z,93728.59
2022-12-03T02:09:53.697Z,93736.91
2022-12-03T02:10:56.424Z,93734.31
2022-12-03T02:11:57.930Z,93732.56
2022-12-03T02:13:02.760Z,93732.16
2022-12-03T02:14:08.855Z,93733.50
2022-12-03T02:15:11.328Z,93738.31
2022-12-03T02:16:12.899Z,93733.66
2022-12-03T02:17:14.609Z,93733.50
2022-12-03T02:18:16.322Z,93729.56
2022-12-03T02:19:24.349Z,93733.50
2022-12-03T02:20:25.947Z,93736.25
2022-12-03T02:21:34.848Z,93737.06
2022-12-03T02:22:55.028Z,93744.16
2022-12-03T02:24:01.731Z,93740.91
2022-12-03T02:25:19.629Z,93742.13
2022-12-03T02:26:21.298Z,93735.81
2022-12-03T02:27:23.331Z,93731.44
2022-12-03T02:28:25.012Z,93731.06
2022-12-03T02:29:26.533Z,93741.16
2022-12-03T02:30:29.821Z,93737.63
2022-12-03T02:31:31.734Z,93734.47
2022-12-03T02:32:33.586Z,93740.09
2022-12-03T02:33:35.251Z,93734.75
2022-12-03T02:34:39.077Z,93735.44
2022-12-03T02:35:40.782Z,93732.69
2022-12-03T02:36:42.364Z,93731.59
2022-12-03T02:37:45.839Z,93735.56
2022-12-03T02:38:49.283Z,93733.78
2022-12-03T02:39:54.619Z,93733.66
2022-12-03T02:41:02.080Z,93737.50
2022-12-03T02:42:05.179Z,93733.13
2022-12-03T02:43:06.758Z,93733.66
2022-12-03T02:44:09.362Z,93735.84
2022-12-03T02:45:15.010Z,93730.91
2022-12-03T02:46:16.569Z,93735.00
2022-12-03T02:47:35.293Z,93725.44
2022-12-03T02:48:39.844Z,93725.59
2022-12-03T02:49:41.767Z,93728.84
2022-12-03T02:50:48.106Z,93728.47
2022-12-03T02:51:49.665Z,93727.22
2022-12-03T02:52:54.653Z,93732.97
2022-12-03T02:53:57.084Z,93736.38
2022-12-03T02:54:59.280Z,93729.53
2022-12-03T02:56:03.676Z,93727.31
2022-12-03T02:57:05.660Z,93728.28
2022-12-03T02:58:07.240Z,93727.50
2022-12-03T02:59:08.875Z,93730.78
2022-12-03T03:00:45.358Z,93724.91
2022-12-03T03:01:47.093Z,93728.31
2022-12-03T03:02:49.126Z,93726.94
2022-12-03T03:03:51.872Z,93721.47
2022-12-03T03:04:53.760Z,93725.88
2022-12-03T03:05:56.814Z,93719.44
2022-12-03T03:06:58.787Z,93724.09
2022-12-03T03:08:01.215Z,93724.91
2022-12-03T03:09:03.412Z,93720.22
2022-12-03T03:10:07.143Z,93723.81
2022-12-03T03:11:10.955Z,93722.19
2022-12-03T03:12:12.492Z,93724.63
2022-12-03T03:13:17.743Z,93719.03
2022-12-03T03:14:19.374Z,93727.22
2022-12-03T03:15:21.964Z,93726.53
2022-12-03T03:16:23.590Z,93727.50
2022-12-03T03:17:25.206Z,93730.63
2022-12-03T03:18:26.763Z,93731.19
2022-12-03T03:19:29.138Z,93725.97
2022-12-03T03:20:30.690Z,93730.09
2022-12-03T03:21:32.233Z,93720.78
2022-12-03T03:22:34.874Z,93720.09
2022-12-03T03:23:36.389Z,93723.34
2022-12-03T03:24:38.175Z,93718.88
2022-12-03T03:25:42.514Z,93723.94
2022-12-03T03:26:45.682Z,93720.78
2022-12-03T03:27:47.433Z,93716.13
2022-12-03T03:28:51.084Z,93713.69
2022-12-03T03:29:52.768Z,93719.56
2022-12-03T03:30:54.684Z,93718.06
2022-12-03T03:31:57.139Z,93720.22
2022-12-03T03:32:58.757Z,93726.56
2022-12-03T03:34:00.496Z,93716.44
2022-12-03T03:35:02.739Z,93722.97
2022-12-03T03:36:05.237Z,93720.47
2022-12-03T03:37:06.824Z,93721.47
2022-12-03T03:38:09.602Z,93715.56
2022-12-03T03:39:11.664Z,93719.66
2022-12-03T03:40:13.349Z,93714.88
2022-12-03T03:41:16.228Z,93715.19
2022-12-03T03:42:19.264Z,93716.41
2022-12-03T03:43:22.293Z,93719.28
2022-12-03T03:44:23.883Z,93715.84
2022-12-03T03:45:28.981Z,93720.59
2022-12-03T03:46:31.670Z,93712.56
2022-12-03T03:47:33.428Z,93718.84
2022-12-03T03:48:35.531Z,93718.06
2022-12-03T03:49:37.215Z,93708.59
2022-12-03T03:50:38.970Z,93712.81
2022-12-03T03:51:40.901Z,93715.56
2022-12-03T03:52:43.146Z,93714.59
2022-12-03T03:53:47.391Z,93711.81
2022-12-03T03:54:49.212Z,93706.22
2022-12-03T03:55:51.131Z,93702.28
2022-12-03T03:56:52.830Z,93698.09
2022-12-03T03:57:55.814Z,93704.75
2022-12-03T03:58:57.622Z,93705.28
2022-12-03T03:59:59.793Z,93704.59
2022-12-03T04:01:01.664Z,93701.38
2022-12-03T04:02:05.948Z,93708.72
2022-12-03T04:03:07.480Z,93705.88
2022-12-03T04:04:26.274Z,93710.53
2022-12-03T04:05:28.118Z,93710.66
2022-12-03T04:06:29.645Z,93706.28
2022-12-03T04:07:31.242Z,93708.75
2022-12-03T04:08:32.826Z,93705.63
2022-12-03T04:09:34.401Z,93707.78
2022-12-03T04:10:35.936Z,93712.03
2022-12-03T04:11:37.483Z,93704.34
2022-12-03T04:12:38.999Z,93707.63
2022-12-03T04:13:41.859Z,93708.59
2022-12-03T04:14:43.384Z,93707.06
2022-12-03T04:15:44.915Z,93702.88
2022-12-03T04:16:46.492Z,93708.88
2022-12-03T04:17:48.190Z,93699.81
2022-12-03T04:18:49.725Z,93700.75
2022-12-03T04:19:51.285Z,93704.59
2022-12-03T04:20:52.807Z,93705.69
2022-12-03T04:21:54.316Z,93702.00
2022-12-03T04:22:55.837Z,93708.19
2022-12-03T04:23:57.404Z,93709.97
2022-12-03T04:24:58.986Z,93709.28
2022-12-03T04:26:00.514Z,93708.06
2022-12-03T04:27:01.998Z,93710.50
2022-12-03T04:28:03.566Z,93718.00
2022-12-03T04:29:06.531Z,93706.28
2022-12-03T04:30:09.212Z,93710.94
2022-12-03T04:31:10.835Z,93712.44
2022-12-03T04:32:12.363Z,93705.56
2022-12-03T04:33:32.512Z,93707.22
2022-12-03T04:34:34.080Z,93714.44
2022-12-03T04:35:35.676Z,93710.63
2022-12-03T04:36:37.644Z,93714.47
2022-12-03T04:37:39.186Z,93710.53
2022-12-03T04:38:40.694Z,93706.81
2022-12-03T04:39:42.243Z,93710.25
2022-12-03T04:40:43.751Z,93709.50
2022-12-03T04:41:45.356Z,93706.91
2022-12-03T04:42:46.859Z,93713.22
2022-12-03T04:43:48.462Z,93698.00
2022-12-03T04:44:51.811Z,93694.78
2022-12-03T04:45:53.749Z,93698.34
2022-12-03T04:46:55.274Z,93699.97
2022-12-03T04:47:56.778Z,93693.59
2022-12-03T04:48:58.319Z,93694.94
2022-12-03T04:49:59.861Z,93694.25
2022-12-03T04:51:01.374Z,93702.19
2022-12-03T04:52:03.041Z,93701.66
2022-12-03T04:53:04.530Z,93702.75
2022-12-03T04:54:06.092Z,93705.88
2022-12-03T04:55:08.483Z,93704.91
2022-12-03T04:56:10.024Z,93700.97
2022-12-03T04:57:26.931Z,93705.03
2022-12-03T04:58:28.482Z,93703.81
2022-12-03T04:59:30.150Z,93704.88
2022-12-03T05:00:33.024Z,93704.06
2022-12-03T05:01:34.662Z,93704.88
2022-12-03T05:02:42.192Z,93704.91
2022-12-03T05:03:55.750Z,93699.84
2022-12-03T05:04:57.251Z,93705.19
2022-12-03T05:05:58.747Z,93702.56
2022-12-03T05:07:00.347Z,93707.94
2022-12-03T05:08:01.907Z,93708.47
2022-12-03T05:09:03.887Z,93698.50
2022-12-03T05:10:07.046Z,93698.53
2022-12-03T05:11:08.590Z,93705.59
2022-12-03T05:12:10.099Z,93697.56
2022-12-03T05:13:11.589Z,93701.41
2022-12-03T05:14:13.347Z,93705.63
2022-12-03T05:15:15.048Z,93704.38
2022-12-03T05:16:18.020Z,93694.97
2022-12-03T05:17:19.611Z,93700.53
2022-12-03T05:18:21.166Z,93694.97
2022-12-03T05:19:22.712Z,93702.47
2022-12-03T05:20:24.203Z,93695.09
2022-12-03T05:21:25.754Z,93689.88
2022-12-03T05:22:27.329Z,93681.53
2022-12-03T05:23:28.893Z,93684.28
2022-12-03T05:24:30.379Z,93681.94
2022-12-03T05:25:31.908Z,93680.19
2022-12-03T05:26:33.465Z,93679.38
2022-12-03T05:27:35.041Z,93682.91
2022-12-03T05:28:36.556Z,93685.13
2022-12-03T05:29:38.094Z,93693.19
2022-12-03T05:30:39.693Z,93682.53
2022-12-03T05:31:42.556Z,93685.25
2022-12-03T05:32:44.090Z,93690.16
2022-12-03T05:33:45.662Z,93694.13
2022-12-03T05:34:47.255Z,93693.84
2022-12-03T05:35:48.795Z,93700.56
2022-12-03T05:37:02.623Z,93694.97
2022-12-03T05:38:04.147Z,93700.00
2022-12-03T05:39:05.666Z,93695.50
2022-12-03T05:40:08.411Z,93694.25
2022-12-03T05:41:09.949Z,93711.47
2022-12-03T05:42:11.943Z,93708.34
2022-12-03T05:43:13.445Z,93710.94
2022-12-03T05:44:20.133Z,93709.56
2022-12-03T05:45:22.662Z,93715.88
2022-12-03T05:46:24.303Z,93710.41
2022-12-03T05:47:27.206Z,93698.91
2022-12-03T05:48:28.733Z,93700.81
2022-12-03T05:49:30.283Z,93695.75
2022-12-03T05:50:38.885Z,93701.34
2022-12-03T05:51:40.439Z,93695.09
2022-12-03T05:52:42.090Z,93704.66
2022-12-03T05:53:43.622Z,93700.44
2022-12-03T05:54:57.505Z,93695.09
2022-12-03T05:55:59.020Z,93695.09
2022-12-03T05:57:00.587Z,93700.53
2022-12-03T05:58:02.381Z,93702.88
2022-12-03T05:59:03.927Z,93708.75
2022-12-03T06:00:08.604Z,93707.41
2022-12-03T06:01:10.138Z,93709.84
2022-12-03T06:02:11.901Z,93705.19
2022-12-03T06:03:15.056Z,93714.34
2022-12-03T06:04:16.655Z,93717.50
2022-12-03T06:05:18.942Z,93725.13
2022-12-03T06:06:23.249Z,93723.59
2022-12-03T06:07:24.849Z,93726.88
2022-12-03T06:08:26.428Z,93726.38
2022-12-03T06:09:27.974Z,93713.69
2022-12-03T06:10:29.773Z,93719.81
2022-12-03T06:11:31.449Z,93724.06
2022-12-03T06:12:33.046Z,93715.53
2022-12-03T06:13:34.526Z,93722.25
2022-12-03T06:14:36.041Z,93712.56
2022-12-03T06:15:43.332Z,93711.31
2022-12-03T06:16:45.457Z,93709.72
2022-12-03T06:17:47.270Z,93699.94
2022-12-03T06:18:50.115Z,93698.41
2022-12-03T06:19:51.883Z,93703.19
2022-12-03T06:20:53.426Z,93707.63
2022-12-03T06:21:54.979Z,93705.09
2022-12-03T06:22:56.492Z,93704.84
2022-12-03T06:23:57.988Z,93714.44
2022-12-03T06:25:03.585Z,93710.50
2022-12-03T06:26:07.808Z,93709.97
2022-12-03T06:27:09.321Z,93708.41
2022-12-03T06:28:10.871Z,93711.94
2022-12-03T06:29:12.376Z,93712.50
2022-12-03T06:30:14.272Z,93715.16
2022-12-03T06:31:16.042Z,93708.75
2022-12-03T06:32:17.600Z,93705.47
2022-12-03T06:33:19.146Z,93703.56
2022-12-03T06:34:22.062Z,93707.94
2022-12-03T06:35:23.554Z,93716.53
2022-12-03T06:36:25.092Z,93712.41
2022-12-03T06:37:26.570Z,93716.09
2022-12-03T06:38:28.079Z,93710.94
2022-12-03T06:39:29.690Z,93714.75
2022-12-03T06:40:31.250Z,93707.38
2022-12-03T06:41:32.767Z,93713.94
2022-12-03T06:42:34.290Z,93714.06
2022-12-03T06:43:35.823Z,93713.38
2022-12-03T06:44:37.386Z,93714.22
2022-12-03T06:45:42.124Z,93710.66
2022-12-03T06:46:47.818Z,93721.84
2022-12-03T06:47:49.375Z,93717.78
2022-12-03T06:48:50.864Z,93717.06
2022-12-03T06:49:53.708Z,93706.69
2022-12-03T06:54:48.602Z,93707.66
2022-12-03T06:55:50.121Z,93704.78
2022-12-03T06:56:51.639Z,93708.59
2022-12-03T06:57:53.158Z,93707.50
2022-12-03T06:58:54.733Z,93706.53
2022-12-03T06:59:56.578Z,93703.94
2022-12-03T07:00:58.175Z,93706.53
2022-12-03T07:01:59.890Z,93703.78
2022-12-03T07:03:01.586Z,93709.78
2022-12-03T07:04:03.158Z,93709.00
2022-12-03T07:05:07.335Z,93711.94
2022-12-03T07:06:08.839Z,93711.69
2022-12-03T07:07:10.377Z,93713.75
2022-12-03T07:08:11.993Z,93710.56
2022-12-03T07:09:13.538Z,93713.59
2022-12-03T07:10:23.921Z,93712.81
2022-12-03T07:11:25.460Z,93715.00
2022-12-03T07:12:27.029Z,93710.78
2022-12-03T07:13:28.586Z,93708.03
2022-12-03T07:14:30.093Z,93713.22
2022-12-03T07:15:31.627Z,93714.03
2022-12-03T07:16:33.728Z,93711.31
2022-12-03T07:17:35.368Z,93714.81
2022-12-03T07:18:36.887Z,93714.91
2022-12-03T07:19:38.659Z,93711.09
2022-12-03T07:20:41.542Z,93699.19
2022-12-03T07:21:43.066Z,93705.03
2022-12-03T07:22:44.575Z,93706.41
2022-12-03T07:23:46.087Z,93711.47
2022-12-03T07:24:47.656Z,93696.91
2022-12-03T07:25:54.962Z,93708.41
2022-12-03T07:26:56.464Z,93693.75
2022-12-03T07:27:58.000Z,93703.47
2022-12-03T07:28:59.559Z,93706.44
2022-12-03T07:30:01.089Z,93704.97
2022-12-03T07:31:02.757Z,93710.25
2022-12-03T07:32:04.790Z,93708.13
2022-12-03T07:33:06.345Z,93709.97
2022-12-03T07:34:07.873Z,93707.28
2022-12-03T07:35:10.046Z,93704.28
2022-12-03T07:36:12.891Z,93705.94
2022-12-03T07:37:17.512Z,93708.97
2022-12-03T07:38:21.541Z,93709.88
2022-12-03T07:39:23.065Z,93703.34
2022-12-03T07:40:24.571Z,93698.00
2022-12-03T07:41:26.090Z,93699.09
2022-12-03T07:42:27.706Z,93705.16
2022-12-03T07:43:29.254Z,93702.47
2022-12-03T07:44:30.808Z,93701.97
2022-12-03T07:45:32.337Z,93703.16
2022-12-03T07:46:33.948Z,93707.25
2022-12-03T07:47:35.495Z,93703.50
2022-12-03T07:48:37.004Z,93710.91
2022-12-03T07:49:38.505Z,93705.59
2022-12-03T07:50:40.029Z,93704.28
2022-12-03T07:51:45.786Z,93704.91
2022-12-03T07:52:47.336Z,93715.44
2022-12-03T07:53:48.902Z,93709.00
2022-12-03T07:54:50.508Z,93713.13
2022-12-03T07:55:52.076Z,93715.72
2022-12-03T07:56:58.109Z,93716.91
2022-12-03T07:58:02.933Z,93712.72
2022-12-03T07:59:04.467Z,93712.47
2022-12-03T08:00:07.541Z,93723.63
2022-12-03T08:01:09.139Z,93714.22
2022-12-03T08:02:10.772Z,93716.69
2022-12-03T08:03:12.320Z,93724.03
2022-12-03T08:04:13.844Z,93715.06
2022-12-03T08:05:15.566Z,93718.00
2022-12-03T08:06:26.233Z,93707.06
2022-12-03T08:07:34.933Z,93717.69
2022-12-03T08:08:36.501Z,93713.34
2022-12-03T08:09:40.644Z,93714.28
2022-12-03T08:10:42.215Z,93715.53
2022-12-03T08:11:45.287Z,93716.50
2022-12-03T08:12:47.041Z,93720.06
2022-12-03T08:13:48.688Z,93720.44
2022-12-03T08:14:50.366Z,93713.91
2022-12-03T08:15:52.049Z,93715.00
2022-12-03T08:16:53.602Z,93710.91
2022-12-03T08:18:11.496Z,93708.97
2022-12-03T08:19:14.629Z,93708.47
2022-12-03T08:22:46.773Z,93702.53
2022-12-03T08:23:48.468Z,93704.91
2022-12-03T08:24:50.016Z,93708.66
2022-12-03T08:25:52.880Z,93707.94
2022-12-03T08:26:57.069Z,93704.00
2022-12-03T08:28:07.293Z,93700.75
2022-12-03T08:29:10.346Z,93707.28
2022-12-03T08:30:14.309Z,93703.34
2022-12-03T08:31:18.964Z,93704.47
2022-12-03T08:32:20.642Z,93698.31
2022-12-03T08:33:27.086Z,93702.44
2022-12-03T08:34:36.649Z,93696.31
2022-12-03T08:35:38.147Z,93697.53
2022-12-03T08:36:39.697Z,93693.97
2022-12-03T08:37:58.381Z,93686.94
2022-12-03T08:39:05.278Z,93685.13
2022-12-03T08:40:21.051Z,93690.72
2022-12-03T08:41:23.977Z,93690.91
2022-12-03T08:42:26.750Z,93687.91
2022-12-03T08:43:37.221Z,93683.28
2022-12-03T08:44:39.149Z,93681.50
2022-12-03T08:45:42.068Z,93681.34
2022-12-03T08:46:44.232Z,93678.75
2022-12-03T08:47:46.072Z,93673.66
2022-12-03T08:48:56.429Z,93677.66
2022-12-03T08:50:26.198Z,93685.28
2022-12-03T08:51:27.737Z,93687.41
2022-12-03T08:52:31.593Z,93683.69
2022-12-03T08:53:41.015Z,93683.72
2022-12-03T08:54:43.022Z,93684.38
2022-12-03T08:55:46.637Z,93685.91
2022-12-03T08:56:48.146Z,93686.72
2022-12-03T08:57:49.669Z,93693.97
2022-12-03T09:00:59.287Z,93694.31
2022-12-03T09:02:00.855Z,93694.25
2022-12-03T09:03:02.799Z,93704.19
2022-12-03T09:04:22.176Z,93703.84
2022-12-03T09:05:28.095Z,93702.69
2022-12-03T09:06:29.683Z,93706.09
2022-12-03T09:07:49.736Z,93698.81
2022-12-03T09:08:52.685Z,93700.47
2022-12-03T09:09:54.207Z,93698.44
2022-12-03T09:10:55.806Z,93699.53
2022-12-03T09:11:57.396Z,93699.50
2022-12-03T09:12:58.939Z,93704.19
2022-12-03T09:14:00.528Z,93710.38
2022-12-03T09:15:02.043Z,93712.59
2022-12-03T09:16:03.836Z,93715.53
2022-12-03T09:17:05.466Z,93715.22
2022-12-03T09:18:07.957Z,93708.53
2022-12-03T09:19:09.622Z,93705.53
2022-12-03T09:20:16.496Z,93711.09
2022-12-03T09:21:17.976Z,93710.09
2022-12-03T09:22:19.554Z,93709.97
2022-12-03T09:23:21.065Z,93710.53
2022-12-03T09:24:23.942Z,93719.75
2022-12-03T09:25:25.523Z,93714.50
2022-12-03T09:26:27.063Z,93712.06
2022-12-03T09:27:28.551Z,93718.16
2022-12-03T09:28:30.048Z,93716.13
2022-12-03T09:29:31.560Z,93707.66
2022-12-03T09:30:33.203Z,93716.69
2022-12-03T09:31:34.742Z,93721.53
2022-12-03T09:32:36.340Z,93718.59
2022-12-03T09:33:37.835Z,93708.47
2022-12-03T09:34:39.368Z,93714.50
2022-12-03T09:35:40.910Z,93718.31
2022-12-03T09:36:42.417Z,93708.44
2022-12-03T09:37:43.997Z,93708.06
2022-12-03T09:38:47.913Z,93710.75
2022-12-03T09:39:51.217Z,93709.06
2022-12-03T09:41:08.761Z,93702.09
2022-12-03T09:42:10.823Z,93709.66
2022-12-03T09:43:13.324Z,93700.63
2022-12-03T09:44:17.985Z,93703.91
2022-12-03T09:45:19.976Z,93705.84
2022-12-03T09:46:22.786Z,93701.66
2022-12-03T09:47:24.633Z,93705.94
2022-12-03T09:48:26.403Z,93704.09
2022-12-03T09:49:30.271Z,93701.56
2022-12-03T09:50:32.043Z,93697.09
2022-12-03T09:51:36.048Z,93697.66
2022-12-03T09:52:37.588Z,93703.25
2022-12-03T09:53:41.309Z,93693.47
2022-12-03T09:54:47.255Z,93696.38
2022-12-03T09:55:50.621Z,93695.19
2022-12-03T09:56:53.279Z,93693.50
2022-12-03T09:57:56.269Z,93691.09
2022-12-03T09:58:57.915Z,93689.72
2022-12-03T09:59:59.539Z,93693.25
2022-12-03T10:01:01.131Z,93695.31
2022-12-03T10:02:03.642Z,93690.00
2022-12-03T10:03:06.890Z,93685.34
2022-12-03T10:04:08.733Z,93679.88
2022-12-03T10:05:10.462Z,93679.03
2022-12-03T10:06:17.137Z,93676.59
2022-12-03T10:07:37.555Z,93678.56
2022-12-03T10:08:39.127Z,93671.84
2022-12-03T10:09:41.127Z,93672.91
2022-12-03T10:10:42.817Z,93674.53
2022-12-03T10:11:45.671Z,93680.44
2022-12-03T10:12:47.474Z,93678.25
2022-12-03T10:14:01.504Z,93679.59
2022-12-03T10:15:03.733Z,93672.47
2022-12-03T10:16:08.957Z,93670.06
2022-12-03T10:17:11.824Z,93668.28
2022-12-03T10:18:17.902Z,93673.03
2022-12-03T10:19:24.017Z,93664.69
2022-12-03T10:20:26.330Z,93668.38
2022-12-03T10:21:30.642Z,93669.78
2022-12-03T10:22:32.122Z,93663.75
2022-12-03T10:23:33.665Z,93661.09
2022-12-03T10:24:36.576Z,93657.88
2022-12-03T10:25:50.611Z,93665.25
2022-12-03T10:26:56.830Z,93657.88
2022-12-03T10:27:59.848Z,93648.56
2022-12-03T10:29:01.419Z,93646.78
2022-12-03T10:30:13.906Z,93650.78
2022-12-03T10:31:15.545Z,93648.22
2022-12-03T10:32:17.164Z,93645.72
2022-12-03T10:33:19.308Z,93643.13
2022-12-03T10:34:25.136Z,93648.56
2022-12-03T10:35:40.293Z,93642.13
2022-12-03T10:36:41.837Z,93653.94
2022-12-03T10:37:57.620Z,93650.81
2022-12-03T10:39:08.021Z,93649.69
2022-12-03T10:40:11.372Z,93650.81
2022-12-03T10:41:24.556Z,93650.16
2022-12-03T10:42:29.468Z,93646.50
2022-12-03T10:43:30.999Z,93649.66
2022-12-03T10:44:32.567Z,93652.41
2022-12-03T10:45:34.088Z,93654.06
2022-12-03T10:46:35.669Z,93646.44
2022-12-03T10:47:37.376Z,93654.44
2022-12-03T10:48:39.049Z,93650.88
2022-12-03T10:49:41.730Z,93638.75
2022-12-03T10:50:48.643Z,93645.03
2022-12-03T10:51:50.174Z,93642.75
2022-12-03T10:52:51.743Z,93635.41
2022-12-03T10:53:53.325Z,93631.50
2022-12-03T10:54:55.297Z,93633.56
2022-12-03T10:56:00.094Z,93635.75
2022-12-03T10:57:02.040Z,93636.03
2022-12-03T10:58:04.993Z,93633.72
2022-12-03T10:59:08.970Z,93641.06
2022-12-03T11:00:15.997Z,93638.06
2022-12-03T11:01:19.196Z,93635.34
2022-12-03T11:02:23.184Z,93635.47
2022-12-03T11:03:26.465Z,93633.16
2022-12-03T11:04:31.461Z,93635.41
2022-12-03T11:05:33.738Z,93634.34
2022-12-03T11:06:35.395Z,93634.63
2022-12-03T11:07:39.125Z,93637.94
2022-12-03T11:08:43.391Z,93629.03
2022-12-03T11:09:47.195Z,93629.44
2022-12-03T11:10:57.218Z,93632.22
2022-12-03T11:12:04.418Z,93630.69
2022-12-03T11:13:44.665Z,93627.69
2022-12-03T11:14:59.815Z,93625.91
2022-12-03T11:16:03.291Z,93630.22
2022-12-03T11:17:06.993Z,93632.81
2022-12-03T11:18:08.596Z,93630.28
2022-12-03T11:19:15.107Z,93629.25
2022-12-03T11:21:05.437Z,93625.97
2022-12-03T11:22:43.829Z,93622.13
2022-12-03T11:24:15.659Z,93629.97
2022-12-03T11:25:47.362Z,93618.13
2022-12-03T11:27:17.163Z,93622.09
2022-12-03T11:28:52.185Z,93623.88
2022-12-03T11:29:57.052Z,93623.06
2022-12-03T11:31:01.031Z,93622.25
2022-12-03T11:32:11.273Z,93621.97
2022-12-03T11:33:23.498Z,93622.50
2022-12-03T11:34:48.693Z,93623.84
2022-12-03T11:36:14.667Z,93629.00
2022-12-03T11:37:26.885Z,93623.13
2022-12-03T11:38:55.920Z,93623.84
2022-12-03T11:40:26.968Z,93626.56
2022-12-03T11:41:31.424Z,93626.97
2022-12-03T11:42:43.401Z,93622.31
2022-12-03T11:44:18.742Z,93619.38
2022-12-03T11:45:30.867Z,93613.31
2022-12-03T11:46:42.119Z,93621.00
2022-12-03T11:47:47.432Z,93614.16
2022-12-03T11:48:51.626Z,93612.25
2022-12-03T11:49:53.488Z,93605.13
2022-12-03T11:50:55.602Z,93600.41
2022-12-03T11:51:59.911Z,93604.47
2022-12-03T11:53:08.184Z,93597.88
2022-12-03T11:54:15.785Z,93600.81
2022-12-03T11:55:24.683Z,93596.72
2022-12-03T11:56:29.963Z,93600.16
2022-12-03T11:57:37.106Z,93597.84
2022-12-03T11:58:42.229Z,93595.69
2022-12-03T11:59:57.419Z,93591.94
2022-12-03T12:01:02.534Z,93589.66
2022-12-03T12:02:19.729Z,93588.84
2022-12-03T12:03:23.969Z,93582.44
2022-12-03T12:04:33.964Z,93587.78
2022-12-03T12:05:35.720Z,93581.81
2022-12-03T12:06:42.423Z,93582.88
2022-12-03T12:07:44.324Z,93577.41
2022-12-03T12:08:56.165Z,93576.00
2022-12-03T12:09:58.029Z,93573.31
2022-12-03T12:11:00.251Z,93571.94
2022-12-03T12:12:21.250Z,93568.81
2022-12-03T12:13:51.247Z,93562.94
2022-12-03T12:14:52.791Z,93566.44
2022-12-03T12:15:54.571Z,93565.25
2022-12-03T12:16:57.453Z,93565.09
2022-12-03T12:18:38.907Z,93568.38
2022-12-03T12:19:41.758Z,93565.88
2022-12-03T12:20:43.360Z,93558.97
2022-12-03T12:21:47.191Z,93564.09
2022-12-03T12:22:48.757Z,93557.91
2022-12-03T12:23:50.268Z,93559.31
2022-12-03T12:24:53.477Z,93557.03
2022-12-03T12:26:06.060Z,93557.03
2022-12-03T12:27:09.558Z,93560.34
2022-12-03T12:28:11.072Z,93554.59
2022-12-03T12:29:12.590Z,93546.13
2022-12-03T12:30:15.914Z,93542.66
2022-12-03T12:31:17.511Z,93547.09
2022-12-03T12:32:27.067Z,93554.50
2022-12-03T12:33:28.602Z,93562.63
2022-12-03T12:34:31.474Z,93559.06
2022-12-03T12:35:33.135Z,93565.69
2022-12-03T12:36:34.794Z,93567.31
2022-12-03T12:37:47.349Z,93566.03
2022-12-03T12:38:50.171Z,93560.66
2022-12-03T12:39:56.235Z,93561.38